createdAt,value
2022-11-09T00:01:04.772Z,18.84
2022-11-09T00:03:31.773Z,18.82
2022-11-09T00:06:00.365Z,18.79
2022-11-09T00:08:27.713Z,18.78
2022-11-09T00:10:54.610Z,18.76
2022-11-09T00:13:22.300Z,18.73
2022-11-09T00:15:49.369Z,18.68
2022-11-09T00:18:16.088Z,18.67
2022-11-09T00:20:47.225Z,18.66
2022-11-09T00:23:16.723Z,18.65
2022-11-09T00:25:43.816Z,18.62
2022-11-09T00:28:10.522Z,18.60
2022-11-09T00:30:37.272Z,18.57
2022-11-09T00:33:04.035Z,18.54
2022-11-09T00:35:30.744Z,18.51
2022-11-09T00:37:57.520Z,18.48
2022-11-09T00:40:24.574Z,18.46
2022-11-09T00:42:51.772Z,18.43
2022-11-09T00:45:18.548Z,18.40
2022-11-09T00:47:45.247Z,18.37
2022-11-09T00:50:11.988Z,18.34
2022-11-09T00:52:38.698Z,18.31
2022-11-09T00:55:05.807Z,18.29
2022-11-09T00:57:32.613Z,18.28
2022-11-09T00:59:59.364Z,18.25
2022-11-09T01:02:26.156Z,18.23
2022-11-09T01:04:52.880Z,18.22
2022-11-09T01:07:19.625Z,18.21
2022-11-09T01:09:46.383Z,18.21
2022-11-09T01:12:13.134Z,18.18
2022-11-09T01:14:39.833Z,18.18
2022-11-09T01:17:06.552Z,18.16
2022-11-09T01:19:33.278Z,18.15
2022-11-09T01:21:59.996Z,18.12
2022-11-09T01:24:26.681Z,18.12
2022-11-09T01:26:53.372Z,18.11
2022-11-09T01:29:20.039Z,18.11
2022-11-09T01:31:48.441Z,18.11
2022-11-09T01:34:17.410Z,18.10
2022-11-09T01:36:44.276Z,18.09
2022-11-09T01:39:11.370Z,18.08
2022-11-09T01:41:38.103Z,18.06
2022-11-09T01:44:18.089Z,18.04
2022-11-09T01:46:50.822Z,18.02
2022-11-09T01:49:41.087Z,18.00
2022-11-09T01:52:31.283Z,17.96
2022-11-09T01:55:09.038Z,17.95
2022-11-09T01:57:49.946Z,17.94
2022-11-09T02:00:18.137Z,17.95
2022-11-09T02:02:52.900Z,17.96
2022-11-09T02:05:26.436Z,17.94
2022-11-09T02:07:53.972Z,17.94
2022-11-09T02:10:45.344Z,17.91
2022-11-09T02:13:16.846Z,17.89
2022-11-09T02:15:45.935Z,17.88
2022-11-09T02:18:13.146Z,17.85
2022-11-09T02:21:06.302Z,17.85
2022-11-09T02:23:33.070Z,17.80
2022-11-09T02:26:07.423Z,17.81
2022-11-09T02:28:37.139Z,17.80
2022-11-09T02:31:10.610Z,17.81
2022-11-09T02:33:55.497Z,17.80
2022-11-09T02:36:24.006Z,17.76
2022-11-09T02:38:54.389Z,17.73
2022-11-09T02:41:23.035Z,17.72
2022-11-09T02:43:53.603Z,17.73
2022-11-09T02:46:34.267Z,17.73
2022-11-09T02:49:02.421Z,17.73
2022-11-09T02:51:29.207Z,17.70
2022-11-09T02:53:56.267Z,17.69
2022-11-09T02:56:23.151Z,17.72
2022-11-09T02:58:49.961Z,17.70
2022-11-09T03:01:16.740Z,17.71
2022-11-09T03:03:43.709Z,17.68
2022-11-09T03:06:10.597Z,17.71
2022-11-09T03:08:37.417Z,17.69
2022-11-09T03:11:06.080Z,17.70
2022-11-09T03:13:34.477Z,17.70
2022-11-09T03:16:09.360Z,17.73
2022-11-09T03:18:36.305Z,17.74
2022-11-09T03:21:06.732Z,17.75
2022-11-09T03:23:34.143Z,17.73
2022-11-09T03:26:00.867Z,17.74
2022-11-09T03:28:27.589Z,17.73
2022-11-09T03:30:54.551Z,17.72
2022-11-09T03:33:21.939Z,17.72
2022-11-09T03:35:49.263Z,17.73
2022-11-09T03:38:16.016Z,17.74
2022-11-09T03:40:42.725Z,17.74
2022-11-09T03:43:09.519Z,17.76
2022-11-09T03:45:36.522Z,17.75
2022-11-09T03:48:03.582Z,17.74
2022-11-09T03:50:33.429Z,17.76
2022-11-09T03:53:01.586Z,17.73
2022-11-09T03:55:29.206Z,17.74
2022-11-09T03:57:55.921Z,17.76
2022-11-09T04:00:23.987Z,17.76
2022-11-09T04:02:51.661Z,17.78
2022-11-09T04:05:19.036Z,17.80
2022-11-09T04:07:57.505Z,17.82
2022-11-09T04:10:26.477Z,17.84
2022-11-09T04:12:53.549Z,17.88
2022-11-09T04:15:21.129Z,17.90
2022-11-09T04:17:59.387Z,17.93
2022-11-09T04:20:28.952Z,17.95
2022-11-09T04:23:03.428Z,17.96
2022-11-09T04:25:36.457Z,17.98
2022-11-09T04:28:05.808Z,18.00
2022-11-09T04:30:35.449Z,18.01
2022-11-09T04:33:03.273Z,18.01
2022-11-09T04:35:32.836Z,18.04
2022-11-09T04:38:07.406Z,18.02
2022-11-09T04:40:36.056Z,18.02
2022-11-09T04:43:06.228Z,18.02
2022-11-09T04:45:34.798Z,18.05
2022-11-09T04:48:04.803Z,18.04
2022-11-09T04:50:32.623Z,18.05
2022-11-09T04:53:11.736Z,18.05
2022-11-09T04:55:38.780Z,18.04
2022-11-09T04:58:06.618Z,18.06
2022-11-09T05:00:33.838Z,18.08
2022-11-09T05:03:06.553Z,18.09
2022-11-09T05:05:35.421Z,18.06
2022-11-09T05:08:02.824Z,18.05
2022-11-09T05:10:30.066Z,18.01
2022-11-09T05:13:01.222Z,17.97
2022-11-09T05:15:28.731Z,17.92
2022-11-09T05:17:56.052Z,17.85
2022-11-09T05:20:23.166Z,17.79
2022-11-09T05:23:08.400Z,17.73
2022-11-09T05:25:35.392Z,17.64
2022-11-09T05:28:02.432Z,17.58
2022-11-09T05:30:29.237Z,17.50
2022-11-09T05:32:56.033Z,17.39
2022-11-09T05:35:22.990Z,17.25
2022-11-09T05:37:50.600Z,17.10
2022-11-09T05:40:19.517Z,16.97
2022-11-09T05:42:46.897Z,16.86
2022-11-09T05:48:04.932Z,16.74
2022-11-09T05:50:31.768Z,16.71
2022-11-09T05:53:02.306Z,16.68
2022-11-09T05:55:29.057Z,16.62
2022-11-09T05:57:56.343Z,16.58
2022-11-09T06:00:23.432Z,16.51
2022-11-09T06:02:50.330Z,16.45
2022-11-09T06:05:17.828Z,16.39
2022-11-09T06:07:44.543Z,16.33
2022-11-09T06:10:12.815Z,16.28
2022-11-09T06:12:39.526Z,16.26
2022-11-09T06:15:06.859Z,16.22
2022-11-09T06:17:33.583Z,16.19
2022-11-09T06:20:00.295Z,16.15
2022-11-09T06:22:27.177Z,16.14
2022-11-09T06:24:53.858Z,16.12
2022-11-09T06:27:20.560Z,16.10
2022-11-09T06:29:47.279Z,16.10
2022-11-09T06:32:13.987Z,16.09
2022-11-09T06:34:40.759Z,16.10
2022-11-09T06:37:07.452Z,16.11
2022-11-09T06:39:34.161Z,16.11
2022-11-09T06:42:01.360Z,16.11
2022-11-09T06:44:28.179Z,16.09
2022-11-09T06:46:55.176Z,16.06
2022-11-09T06:49:21.887Z,16.03
2022-11-09T06:51:48.728Z,16.00
2022-11-09T06:54:15.580Z,15.96
2022-11-09T06:56:42.385Z,15.91
2022-11-09T06:59:09.177Z,15.89
2022-11-09T07:01:37.734Z,15.84
2022-11-09T07:04:04.924Z,15.83
2022-11-09T07:06:31.735Z,15.82
2022-11-09T07:08:58.495Z,15.81
2022-11-09T07:11:25.311Z,15.82
2022-11-09T07:13:57.115Z,15.82
2022-11-09T07:16:24.497Z,15.81
2022-11-09T07:18:51.253Z,15.81
2022-11-09T07:21:18.512Z,15.83
2022-11-09T07:23:48.882Z,15.88
2022-11-09T07:26:16.979Z,15.91
2022-11-09T07:28:44.188Z,15.96
2022-11-09T07:31:11.046Z,16.03
2022-11-09T07:33:38.061Z,16.12
2022-11-09T07:36:06.103Z,16.26
2022-11-09T07:38:33.054Z,16.49
2022-11-09T07:41:01.386Z,16.80
2022-11-09T07:43:29.172Z,17.19
2022-11-09T07:45:56.381Z,17.61
2022-11-09T07:48:23.642Z,18.04
2022-11-09T07:50:50.508Z,18.48
2022-11-09T07:53:17.922Z,18.91
2022-11-09T07:55:44.818Z,19.33
2022-11-09T07:58:14.996Z,19.74
2022-11-09T08:00:43.242Z,20.04
2022-11-09T08:03:10.745Z,20.27
2022-11-09T08:05:38.531Z,20.39
2022-11-09T08:08:10.302Z,20.46
2022-11-09T08:10:38.729Z,20.58
2022-11-09T08:13:14.048Z,20.79
2022-11-09T08:15:42.383Z,20.97
2022-11-09T08:18:15.209Z,21.30
2022-11-09T08:20:41.977Z,21.63
2022-11-09T08:23:13.351Z,22.06
2022-11-09T08:25:41.119Z,22.62
2022-11-09T08:28:14.325Z,23.15
2022-11-09T08:30:42.919Z,23.57
2022-11-09T08:33:10.410Z,23.95
2022-11-09T08:35:37.356Z,24.32
2022-11-09T08:38:05.879Z,24.66
2022-11-09T08:40:33.926Z,24.96
2022-11-09T08:43:07.484Z,25.27
2022-11-09T08:45:37.972Z,25.56
2022-11-09T08:48:06.378Z,25.91
2022-11-09T08:50:36.014Z,26.22
2022-11-09T08:53:04.336Z,26.49
2022-11-09T08:55:31.318Z,26.67
2022-11-09T08:58:01.098Z,26.84
2022-11-09T09:00:28.874Z,26.91
2022-11-09T09:02:55.711Z,26.91
2022-11-09T09:05:22.984Z,26.86
2022-11-09T09:07:49.674Z,26.83
2022-11-09T09:10:16.484Z,26.84
2022-11-09T09:12:43.226Z,26.95
2022-11-09T09:15:10.085Z,27.06
2022-11-09T09:17:36.802Z,27.12
2022-11-09T09:20:05.671Z,27.12
2022-11-09T09:22:33.306Z,27.08
2022-11-09T09:25:00.264Z,26.99
2022-11-09T09:27:27.314Z,26.86
2022-11-09T09:29:54.032Z,26.67
2022-11-09T09:32:20.886Z,26.41
2022-11-09T09:34:47.692Z,26.12
2022-11-09T09:37:15.640Z,25.81
2022-11-09T09:39:42.384Z,25.59
2022-11-09T09:42:19.971Z,25.46
2022-11-09T09:44:56.201Z,25.33
2022-11-09T09:47:54.477Z,25.19
2022-11-09T09:50:31.399Z,25.05
2022-11-09T09:53:23.837Z,24.82
2022-11-09T09:56:18.072Z,24.51
2022-11-09T09:59:25.760Z,24.29
2022-11-09T10:01:53.028Z,24.17
2022-11-09T10:04:25.364Z,24.15
2022-11-09T10:07:13.903Z,24.14
2022-11-09T10:10:10.801Z,24.16
2022-11-09T10:13:04.673Z,24.16
2022-11-09T10:15:55.151Z,24.17
2022-11-09T10:18:44.656Z,24.18
2022-11-09T10:21:24.326Z,24.25
2022-11-09T10:24:18.348Z,24.34
2022-11-09T10:26:56.905Z,24.45
2022-11-09T10:29:38.573Z,24.47
2022-11-09T10:32:20.894Z,24.53
2022-11-09T10:35:05.828Z,24.78
2022-11-09T10:37:44.356Z,25.13
2022-11-09T10:40:31.439Z,25.48
2022-11-09T10:43:02.544Z,25.69
2022-11-09T10:45:38.730Z,25.83
2022-11-09T10:48:08.225Z,26.00
2022-11-09T10:50:53.957Z,26.17
2022-11-09T10:53:30.184Z,26.31
2022-11-09T10:56:20.884Z,26.43
2022-11-09T10:58:51.885Z,26.49
2022-11-09T11:01:24.271Z,26.51
2022-11-09T11:03:54.252Z,26.50
2022-11-09T11:06:28.153Z,26.42
2022-11-09T11:08:57.927Z,26.29
2022-11-09T11:11:35.109Z,26.13
2022-11-09T11:14:28.937Z,25.87
2022-11-09T11:16:56.285Z,25.72
2022-11-09T11:19:41.186Z,25.52
2022-11-09T11:22:14.389Z,25.36
2022-11-09T11:25:03.163Z,25.18
2022-11-09T11:28:00.714Z,25.04
2022-11-09T11:30:36.136Z,24.98
2022-11-09T11:33:16.698Z,24.92
2022-11-09T11:36:18.351Z,24.87
2022-11-09T11:39:19.941Z,24.77
2022-11-09T11:42:27.019Z,24.70
2022-11-09T11:45:34.022Z,24.65
2022-11-09T11:48:38.520Z,24.58
2022-11-09T11:51:29.966Z,24.54
2022-11-09T11:54:34.131Z,24.40
2022-11-09T11:57:27.513Z,24.19
2022-11-09T12:00:13.525Z,24.02
2022-11-09T12:03:27.174Z,23.78
2022-11-09T12:06:21.423Z,23.54
2022-11-09T12:08:51.575Z,23.33
2022-11-09T12:11:58.908Z,23.06
2022-11-09T12:15:00.614Z,22.81
2022-11-09T12:17:53.366Z,22.61
2022-11-09T12:20:23.814Z,22.47
2022-11-09T12:23:25.396Z,22.34
2022-11-09T12:26:34.251Z,22.14
2022-11-09T12:29:23.453Z,22.02
2022-11-09T12:32:03.788Z,21.93
2022-11-09T12:35:14.095Z,21.77
2022-11-09T12:37:53.733Z,21.62
2022-11-09T12:40:42.610Z,21.47
2022-11-09T12:43:39.384Z,21.32
2022-11-09T12:46:09.248Z,21.19
2022-11-09T12:48:36.143Z,21.08
2022-11-09T12:51:07.400Z,21.00
2022-11-09T12:53:38.500Z,20.90
2022-11-09T12:56:22.584Z,20.81
2022-11-09T12:58:49.566Z,20.75
2022-11-09T13:01:34.463Z,20.69
2022-11-09T13:04:04.556Z,20.65
2022-11-09T13:06:33.664Z,20.59
2022-11-09T13:09:15.651Z,20.53
2022-11-09T13:11:49.285Z,20.48
2022-11-09T13:14:22.016Z,20.44
2022-11-09T13:17:18.803Z,20.41
2022-11-09T13:19:45.413Z,20.39
2022-11-09T13:22:15.139Z,20.37
2022-11-09T13:25:01.601Z,20.33
2022-11-09T13:27:48.677Z,20.26
2022-11-09T13:30:28.273Z,20.19
2022-11-09T13:33:07.272Z,20.13
2022-11-09T13:35:40.050Z,20.07
2022-11-09T13:38:22.270Z,20.03
2022-11-09T13:40:57.304Z,20.00
2022-11-09T13:43:40.888Z,19.99
2022-11-09T13:46:26.065Z,19.95
2022-11-09T13:48:54.145Z,19.99
2022-11-09T13:51:36.222Z,20.00
2022-11-09T13:54:05.255Z,20.02
2022-11-09T13:56:39.933Z,20.05
2022-11-09T13:59:31.846Z,20.05
2022-11-09T14:02:02.093Z,20.04
2022-11-09T14:04:43.451Z,20.05
2022-11-09T14:07:30.748Z,20.04
2022-11-09T14:10:32.432Z,19.98
2022-11-09T14:13:20.689Z,19.93
2022-11-09T14:16:05.944Z,19.89
2022-11-09T14:19:11.710Z,19.82
2022-11-09T14:21:47.509Z,19.77
2022-11-09T14:24:29.477Z,19.73
2022-11-09T14:27:16.841Z,19.62
2022-11-09T14:29:57.248Z,19.54
2022-11-09T14:32:36.607Z,19.46
2022-11-09T14:35:21.762Z,19.38
2022-11-09T14:37:54.293Z,19.32
2022-11-09T14:40:31.374Z,19.27
2022-11-09T14:43:16.149Z,19.20
2022-11-09T14:45:56.084Z,19.11
2022-11-09T14:48:24.713Z,19.01
2022-11-09T14:50:58.840Z,18.96
2022-11-09T14:53:33.267Z,18.90
2022-11-09T14:56:05.332Z,18.84
2022-11-09T14:58:35.922Z,18.80
2022-11-09T15:01:26.926Z,18.74
2022-11-09T15:04:16.738Z,18.67
2022-11-09T15:06:52.868Z,18.64
2022-11-09T15:09:25.699Z,18.62
2022-11-09T15:11:52.957Z,18.59
2022-11-09T15:14:28.191Z,18.57
2022-11-09T15:17:32.160Z,18.52
2022-11-09T15:20:08.834Z,18.47
2022-11-09T15:22:58.873Z,18.43
2022-11-09T15:25:32.360Z,18.37
2022-11-09T15:28:14.156Z,18.31
2022-11-09T15:31:07.296Z,18.26
2022-11-09T15:33:33.919Z,18.21
2022-11-09T15:36:17.699Z,18.18
2022-11-09T15:38:56.650Z,18.11
2022-11-09T15:41:24.886Z,18.05
2022-11-09T15:43:51.645Z,18.03
2022-11-09T15:46:43.387Z,17.99
2022-11-09T15:49:25.364Z,17.90
2022-11-09T15:51:53.529Z,17.84
2022-11-09T15:54:22.907Z,18.19
2022-11-09T15:56:50.136Z,18.03
2022-11-09T15:59:23.528Z,17.87
2022-11-09T16:01:51.057Z,17.76
2022-11-09T16:04:18.542Z,17.67
2022-11-09T16:06:46.721Z,17.59
2022-11-09T16:09:14.401Z,17.52
2022-11-09T16:11:41.530Z,17.48
2022-11-09T16:14:08.518Z,17.43
2022-11-09T16:16:35.257Z,17.40
2022-11-09T16:19:02.180Z,17.37
2022-11-09T16:21:28.937Z,17.34
2022-11-09T16:23:58.432Z,17.31
2022-11-09T16:26:25.929Z,17.28
2022-11-09T16:28:54.903Z,17.26
2022-11-09T16:31:41.087Z,17.21
2022-11-09T16:34:08.547Z,17.17
2022-11-09T16:36:37.785Z,17.14
2022-11-09T16:39:12.545Z,17.14
2022-11-09T16:41:41.807Z,17.11
2022-11-09T16:44:08.661Z,17.11
2022-11-09T16:46:35.491Z,17.11
2022-11-09T16:49:03.362Z,17.12
2022-11-09T16:51:30.863Z,17.13
2022-11-09T16:53:57.664Z,17.11
2022-11-09T16:56:24.805Z,17.15
2022-11-09T16:58:51.903Z,17.16
2022-11-09T17:01:23.029Z,17.17
2022-11-09T17:03:50.372Z,17.20
2022-11-09T17:06:17.100Z,17.22
2022-11-09T17:08:44.045Z,17.25
2022-11-09T17:11:15.003Z,17.29
2022-11-09T17:13:42.137Z,17.28
2022-11-09T17:16:13.500Z,17.28
2022-11-09T17:18:42.645Z,17.28
2022-11-09T17:21:16.618Z,17.27
2022-11-09T17:23:44.240Z,17.27
2022-11-09T17:26:11.304Z,17.24
2022-11-09T17:28:42.896Z,17.25
2022-11-09T17:31:16.092Z,17.26
2022-11-09T17:33:44.002Z,17.23
2022-11-09T17:36:13.979Z,17.22
2022-11-09T17:38:41.517Z,17.19
2022-11-09T17:41:12.237Z,17.17
2022-11-09T17:43:41.653Z,17.11
2022-11-09T17:46:13.960Z,17.05
2022-11-09T17:48:43.432Z,17.00
2022-11-09T17:51:11.965Z,16.97
2022-11-09T17:53:39.455Z,16.91
2022-11-09T17:56:08.411Z,16.88
2022-11-09T17:58:39.442Z,16.82
2022-11-09T18:01:16.604Z,16.76
2022-11-09T18:03:44.015Z,16.71
2022-11-09T18:06:15.786Z,16.67
2022-11-09T18:08:43.820Z,16.65
2022-11-09T18:11:12.249Z,16.61
2022-11-09T18:13:39.628Z,16.59
2022-11-09T18:16:13.319Z,16.57
2022-11-09T18:18:44.777Z,16.51
2022-11-09T18:21:19.939Z,16.48
2022-11-09T18:23:46.924Z,16.45
2022-11-09T18:26:14.468Z,16.43
2022-11-09T18:28:42.658Z,16.41
2022-11-09T18:31:12.817Z,16.40
2022-11-09T18:33:41.127Z,16.38
2022-11-09T18:36:12.084Z,16.36
2022-11-09T18:38:39.526Z,16.33
2022-11-09T18:41:19.385Z,16.30
2022-11-09T18:43:46.729Z,16.26
2022-11-09T18:46:16.244Z,16.25
2022-11-09T18:48:44.109Z,16.21
2022-11-09T18:51:11.894Z,16.21
2022-11-09T18:53:45.552Z,16.20
2022-11-09T18:56:21.607Z,16.17
2022-11-09T18:58:52.500Z,16.15
2022-11-09T19:01:21.005Z,16.14
2022-11-09T19:03:47.819Z,16.12
2022-11-09T19:06:18.132Z,16.11
2022-11-09T19:09:04.509Z,16.08
2022-11-09T19:11:32.090Z,16.03
2022-11-09T19:13:59.110Z,16.03
2022-11-09T19:16:27.391Z,16.02
2022-11-09T19:18:54.491Z,16.03
2022-11-09T19:21:57.894Z,16.03
2022-11-09T19:24:28.458Z,16.00
2022-11-09T19:26:55.748Z,15.99
2022-11-09T19:29:22.605Z,15.98
2022-11-09T19:31:49.688Z,16.00
2022-11-09T19:34:19.984Z,16.00
2022-11-09T19:36:47.138Z,15.99
2022-11-09T19:39:15.538Z,16.01
2022-11-09T19:41:43.259Z,16.00
2022-11-09T19:44:12.990Z,15.99
2022-11-09T19:46:39.938Z,15.98
2022-11-09T19:49:07.266Z,15.96
2022-11-09T19:51:34.896Z,15.95
2022-11-09T19:54:04.585Z,15.91
2022-11-09T19:56:32.809Z,15.90
2022-11-09T19:59:02.035Z,15.89
2022-11-09T20:01:30.602Z,15.86
2022-11-09T20:04:00.120Z,15.84
2022-11-09T20:06:28.748Z,15.83
2022-11-09T20:08:55.952Z,15.82
2022-11-09T20:11:43.872Z,15.79
2022-11-09T20:14:12.416Z,15.78
2022-11-09T20:16:40.914Z,15.77
2022-11-09T20:19:10.984Z,15.79
2022-11-09T20:21:40.070Z,15.78
2022-11-09T20:24:07.800Z,15.80
2022-11-09T20:26:34.599Z,15.83
2022-11-09T20:29:01.370Z,15.85
2022-11-09T20:31:28.222Z,15.88
2022-11-09T20:33:56.578Z,15.90
2022-11-09T20:36:23.383Z,15.95
2022-11-09T20:38:50.115Z,15.96
2022-11-09T20:41:18.740Z,15.99
2022-11-09T20:43:48.532Z,16.02
2022-11-09T20:46:19.114Z,16.05
2022-11-09T20:48:54.207Z,16.07
2022-11-09T20:51:23.585Z,16.10
2022-11-09T20:53:51.514Z,16.13
2022-11-09T20:56:19.848Z,16.18
2022-11-09T20:58:47.451Z,16.21
2022-11-09T21:01:19.868Z,16.24
2022-11-09T21:03:48.816Z,16.27
2022-11-09T21:06:15.832Z,16.27
2022-11-09T21:08:54.576Z,16.32
2022-11-09T21:11:23.789Z,16.32
2022-11-09T21:13:53.097Z,16.34
2022-11-09T21:16:22.456Z,16.34
2022-11-09T21:18:49.816Z,16.34
2022-11-09T21:21:20.467Z,16.33
2022-11-09T21:24:06.757Z,16.32
2022-11-09T21:26:52.141Z,16.29
2022-11-09T21:29:43.017Z,16.25
2022-11-09T21:32:11.944Z,16.22
2022-11-09T21:34:39.214Z,16.21
2022-11-09T21:37:06.786Z,16.24
2022-11-09T21:39:34.030Z,16.22
2022-11-09T21:42:02.072Z,16.20
2022-11-09T21:44:31.849Z,16.20
2022-11-09T21:46:59.884Z,16.18
2022-11-09T21:49:27.089Z,16.17
2022-11-09T21:51:54.705Z,16.16
2022-11-09T21:54:22.259Z,16.15
2022-11-09T21:56:50.664Z,16.14
2022-11-09T21:59:17.725Z,16.13
2022-11-09T22:01:45.474Z,16.14
2022-11-09T22:04:13.310Z,16.13
2022-11-09T22:06:43.197Z,16.10
2022-11-09T22:09:18.318Z,16.08
2022-11-09T22:12:04.296Z,16.07
2022-11-09T22:14:50.003Z,16.03
2022-11-09T22:17:16.796Z,15.99
2022-11-09T22:20:09.716Z,15.98
2022-11-09T22:22:36.972Z,15.95
2022-11-09T22:25:04.339Z,15.94
2022-11-09T22:27:32.277Z,15.93
2022-11-09T22:29:59.198Z,15.93
2022-11-09T22:32:26.517Z,15.94
2022-11-09T22:34:53.282Z,15.94
2022-11-09T22:37:20.083Z,15.93
2022-11-09T22:39:47.628Z,15.93
2022-11-09T22:42:14.875Z,15.91
2022-11-09T22:44:41.622Z,15.88
2022-11-09T22:47:08.593Z,15.84
2022-11-09T22:49:36.625Z,15.82
2022-11-09T22:52:04.195Z,15.81
2022-11-09T22:54:30.987Z,15.78
2022-11-09T22:56:57.698Z,15.75
2022-11-09T22:59:24.379Z,15.72
2022-11-09T23:01:51.116Z,15.69
2022-11-09T23:04:17.898Z,15.65
2022-11-09T23:06:44.780Z,15.62
2022-11-09T23:09:11.623Z,15.60
2022-11-09T23:11:38.368Z,15.58
2022-11-09T23:14:05.212Z,15.56
2022-11-09T23:16:31.931Z,15.57
2022-11-09T23:18:58.617Z,15.55
2022-11-09T23:21:35.477Z,15.52
2022-11-09T23:24:06.288Z,15.50
2022-11-09T23:26:34.334Z,15.49
2022-11-09T23:29:01.471Z,15.50
2022-11-09T23:31:28.390Z,15.53
2022-11-09T23:33:57.415Z,15.55
2022-11-09T23:36:26.423Z,15.57
2022-11-09T23:38:53.493Z,15.59
2022-11-09T23:41:21.172Z,15.58
2022-11-09T23:43:50.005Z,15.60
2022-11-09T23:46:17.941Z,15.62
2022-11-09T23:48:45.166Z,15.63
2022-11-09T23:51:12.025Z,15.62
2022-11-09T23:53:39.422Z,15.64
2022-11-09T23:56:10.548Z,15.64
2022-11-09T23:58:38.183Z,15.64
